Adrian, MI

10:44 PM EST on February 23, 2019 (GMT -0500)
south adrian | | Change Station
Active Advisory: High Wind Warning

Elev 240 ft 41.88 °N, 84.04 °W | Updated 34 seconds ago

Mist
Mist
36.2 °F
Feels Like 33 °F
N
4
Wind Variable Wind from East
Gusts 0.0 mph

Today
High -- | Low -- °F
--% Chance of Precip.
Yesterday
High -- | Low -- °F
Precip. -- in
Pressure 29.64 in
Visibility 0.8 miles
Clouds
Windchill 33 °F
Dew Point 30 °F
Humidity 79%
Rainfall 0.02 in
Snow Depth Not available.
7:20 AM 6:18 PM
Waning Gibbous, 74% visible
SPECI KADG 240320Z AUTO 09008KT 3/4SM BR VV002 02/02 A2964 RMK AO2 PRESFR T00220017 TSNO
Pressure 29.64 in
Visibility 0.8 miles
Clouds
Windchill 33 °F
Dew Point 30 °F
Humidity 79%
Rainfall 0.02 in
Snow Depth Not available.
7:20 AM 6:18 PM
Waning Gibbous, 74% visible
SPECI KADG 240320Z AUTO 09008KT 3/4SM BR VV002 02/02 A2964 RMK AO2 PRESFR T00220017 TSNO

Get Your Daily Forecast Email!

Thanks for signing up!

Be on the lookout for a verification email in your inbox.

You'll start receiving severe weather alerts in your inbox..

×

10-Day Weather Forecast

Almanac

Astronomy

Feb. 23, 2019 Rise Set
Actual Time
Civil Twilight
Nautical Twilight
Astronomical Twilight
Moon
Length of Visible Light
Length of Day
Tomorrow will be .
, % of the Moon is Illuminated

Today's Extremes

State Highs State Lows

Community

WunderPhotos

Category 6

Welcome to Category 6. This is the collective home for Weather Underground's featured writeups by Dr. Jeff Masters (right), Bob Henson (left), Chris Burt, and other regular contributors.

Nearby

Air Quality

  Air Quality AQ Index Pollutant
Not available.

Snow Depth

Station Depth Elevation

Earthquake Activity

City Distance Mag. Time & Date
Minimum magnitude displayed is 2.5.

Coastal Water Temperatures

Place Temperature

Stations

Nearby Weather Stations

Station Location Temp. Windchill Dew Point Humidity Wind Precip. Elev Updated Type
                   

Watches & Warnings

High Wind Warning
Issued: 10:13 PM EST Feb. 23, 2019 – National Weather Service

... High Wind Warning remains in effect from 7 am Sunday to 4 am Monday...

Hazardous weather...

* high wind sustained from the west at 30 to 40 mph with gusts of
   50 to 60 mph begins Sunday morning and persists through late
   Sunday night.

* Brief intervals of gusts exceeding 60 mph are also possible.

* The highest gusts are most likely during the late morning to
   late afternoon.

Impacts...

* downed tree limbs and power lines are likely with numerous
   power outages expected.

* Driving will become hazardous for high profile vehicles,
   especially on north and south roadways.

* Unsecured outdoor objects will be damaged.

Precautionary/preparedness actions...

A High Wind Warning means a hazardous high wind event is expected
or occurring. Sustained wind speeds of at least 40 mph or gusts
of 58 mph or more can lead to property damage.

* Prepare, plan and stay informed. Visit
   www.Weather.Gov/safety/wind



Bt